Time;durP1;ratioP1;P1;durP2;ratioP2;P2;SDS_P1;SDS_P2;PMS_P1;PMS_P2;Temp;Humidity;BMP_temperature;BMP_pressure;BME280_temperature;BME280_humidity;BME280_pressure;Samples;Min_cycle;Max_cycle;Signal;HPM_P1;HPM_P2
2020/12/27 00:02:10;;;;;;;1.97;1.23;;;5.30;99.90;;;;;;5005715;28;20200;-85
2020/12/27 00:04:38;;;;;;;2.40;1.80;;;5.30;99.90;;;;;;5039421;28;20223;-85
2020/12/27 00:07:10;;;;;;;2.03;1.67;;;5.30;99.90;;;;;;5026426;28;20202;-86
2020/12/27 00:09:43;;;;;;;2.90;2.17;;;5.20;99.90;;;;;;5024225;28;20210;-82
2020/12/27 00:12:12;;;;;;;2.50;2.10;;;5.20;99.90;;;;;;5020105;28;20234;-80
2020/12/27 00:14:39;;;;;;;3.67;2.00;;;5.30;99.90;;;;;;5018553;28;20203;-83
2020/12/27 00:17:10;;;;;;;2.47;2.13;;;5.10;99.90;;;;;;5026454;28;20197;-85
2020/12/27 00:19:37;;;;;;;3.50;1.80;;;5.10;99.90;;;;;;5025128;28;20233;-86
2020/12/27 00:22:04;;;;;;;4.03;2.70;;;5.20;99.90;;;;;;5023417;28;20200;-86
2020/12/27 00:24:31;;;;;;;3.30;2.53;;;5.20;99.90;;;;;;5019845;28;20338;-86
2020/12/27 00:26:58;;;;;;;4.13;2.03;;;5.10;99.90;;;;;;5024030;28;20291;-83
2020/12/27 00:29:24;;;;;;;2.07;1.73;;;5.10;99.90;;;;;;5009824;28;20205;-81
2020/12/27 00:31:52;;;;;;;2.53;2.33;;;5.20;99.90;;;;;;5022051;28;20236;-86
2020/12/27 00:34:19;;;;;;;5.03;2.23;;;5.10;99.90;;;;;;5018882;28;20209;-86
2020/12/27 00:36:46;;;;;;;3.87;2.67;;;5.10;99.90;;;;;;5025847;28;20621;-85
2020/12/27 00:39:13;;;;;;;5.53;2.93;;;5.10;99.90;;;;;;5013026;28;20698;-84
2020/12/27 00:41:40;;;;;;;4.37;2.73;;;5.10;99.90;;;;;;5027006;28;20201;-84
2020/12/27 00:44:06;;;;;;;2.00;1.50;;;5.10;99.90;;;;;;5027075;28;20200;-83
2020/12/27 00:46:33;;;;;;;3.37;2.27;;;5.00;99.90;;;;;;5014679;28;20238;-83
2020/12/27 00:48:59;;;;;;;4.40;3.07;;;5.10;99.90;;;;;;5016826;28;20210;-83
2020/12/27 00:51:28;;;;;;;3.13;2.30;;;5.00;99.90;;;;;;5023358;28;20255;-84
2020/12/27 00:53:55;;;;;;;2.80;2.37;;;5.00;99.90;;;;;;5026949;28;20259;-82
2020/12/27 00:56:21;;;;;;;2.37;2.07;;;5.00;99.90;;;;;;5009180;28;20198;-82
2020/12/27 00:58:47;;;;;;;2.23;1.90;;;5.00;99.90;;;;;;5021181;28;20228;-83
2020/12/27 01:01:15;;;;;;;2.53;2.17;;;5.00;99.90;;;;;;5008139;28;20274;-85
2020/12/27 01:03:44;;;;;;;2.33;1.43;;;5.00;99.90;;;;;;5012892;28;20209;-84
2020/12/27 01:06:11;;;;;;;4.07;2.77;;;5.00;99.90;;;;;;5024731;28;20654;-84
2020/12/27 01:08:37;;;;;;;3.30;2.30;;;5.00;99.90;;;;;;5014413;28;20277;-84
2020/12/27 01:11:05;;;;;;;2.20;1.80;;;5.00;99.90;;;;;;5010350;28;20201;-83
2020/12/27 01:13:32;;;;;;;3.47;2.27;;;4.90;99.90;;;;;;5023379;28;20270;-84
2020/12/27 01:15:58;;;;;;;4.40;2.63;;;4.90;99.90;;;;;;5039087;28;20271;-83
2020/12/27 01:18:24;;;;;;;3.77;2.90;;;5.00;99.90;;;;;;5009102;28;20247;-82
2020/12/27 01:20:51;;;;;;;3.93;2.23;;;4.90;99.90;;;;;;5017948;28;20246;-84
2020/12/27 01:23:17;;;;;;;3.00;2.37;;;4.90;99.90;;;;;;5033247;28;20225;-83
2020/12/27 01:25:47;;;;;;;3.00;2.13;;;5.00;99.90;;;;;;5021005;28;20221;-84
2020/12/27 01:28:15;;;;;;;4.53;2.93;;;5.00;99.90;;;;;;5023588;28;20212;-84
2020/12/27 01:30:41;;;;;;;2.60;2.23;;;4.90;99.90;;;;;;5006551;28;20212;-84
2020/12/27 01:33:08;;;;;;;2.33;2.03;;;4.90;99.90;;;;;;5036991;28;20217;-84
2020/12/27 01:35:34;;;;;;;7.53;2.63;;;4.90;99.90;;;;;;5009051;28;20214;-83
2020/12/27 01:38:01;;;;;;;3.40;2.30;;;5.00;99.90;;;;;;5006465;28;20266;-85
2020/12/27 01:40:28;;;;;;;3.13;2.13;;;4.90;99.90;;;;;;5021212;28;20197;-85
2020/12/27 01:42:57;;;;;;;3.27;2.83;;;4.90;99.90;;;;;;5049363;28;20596;-84
2020/12/27 01:45:25;;;;;;;4.40;2.57;;;4.90;99.90;;;;;;5009646;28;20193;-84
2020/12/27 01:47:52;;;;;;;2.97;1.77;;;4.90;99.90;;;;;;5025246;28;20262;-84
2020/12/27 01:50:20;;;;;;;3.30;1.83;;;4.90;99.90;;;;;;5023307;28;20208;-85
2020/12/27 01:52:46;;;;;;;3.43;1.73;;;4.90;99.90;;;;;;5018666;28;20216;-82
2020/12/27 01:55:15;;;;;;;2.40;2.17;;;4.90;99.90;;;;;;5029814;28;20194;-83
2020/12/27 01:58:17;;;;;;;2.30;1.63;;;4.90;99.90;;;;;;5037069;28;20271;-82
2020/12/27 02:00:45;;;;;;;2.43;1.87;;;4.90;99.90;;;;;;5025911;28;20200;-82
2020/12/27 02:03:13;;;;;;;3.80;1.93;;;4.90;99.90;;;;;;5042768;28;20307;-80
2020/12/27 02:05:49;;;;;;;2.47;1.90;;;4.90;99.90;;;;;;5031433;28;20287;-81
2020/12/27 02:08:19;;;;;;;3.03;2.00;;;4.90;99.90;;;;;;5023785;28;20292;-83
2020/12/27 02:10:49;;;;;;;4.57;1.90;;;4.90;99.90;;;;;;5049709;28;20289;-82
2020/12/27 02:13:15;;;;;;;2.30;2.10;;;4.90;99.90;;;;;;5022316;28;20597;-82
2020/12/27 02:15:42;;;;;;;3.53;2.63;;;4.90;99.90;;;;;;5030918;28;20236;-82
2020/12/27 02:18:09;;;;;;;2.40;2.10;;;4.90;99.90;;;;;;5027553;28;20322;-83
2020/12/27 02:20:36;;;;;;;2.23;1.87;;;4.90;99.90;;;;;;5025098;28;20668;-83
2020/12/27 02:23:04;;;;;;;3.20;2.23;;;4.90;99.90;;;;;;5013755;28;20229;-82
2020/12/27 02:25:31;;;;;;;4.60;2.13;;;4.90;99.90;;;;;;5022409;28;20297;-83
2020/12/27 02:27:57;;;;;;;3.83;2.90;;;4.90;99.90;;;;;;5040656;28;20572;-82
2020/12/27 02:30:23;;;;;;;4.60;2.60;;;4.90;99.90;;;;;;5009020;28;20511;-83
2020/12/27 02:32:51;;;;;;;4.07;2.63;;;4.80;99.90;;;;;;5009893;28;20216;-82
2020/12/27 02:35:17;;;;;;;3.40;2.50;;;4.80;99.90;;;;;;5037424;28;20599;-83
2020/12/27 02:37:46;;;;;;;4.00;2.87;;;4.80;99.90;;;;;;5025523;28;20328;-81
2020/12/27 02:40:13;;;;;;;3.63;2.33;;;4.80;99.90;;;;;;5025849;28;20308;-84
2020/12/27 02:42:39;;;;;;;5.00;1.93;;;4.80;99.90;;;;;;5026436;28;20575;-82
2020/12/27 02:45:11;;;;;;;2.57;2.37;;;4.80;99.90;;;;;;5005937;28;20213;-83
2020/12/27 02:47:39;;;;;;;3.20;2.00;;;4.80;99.90;;;;;;5015858;28;20597;-83
2020/12/27 02:50:10;;;;;;;2.47;1.63;;;4.80;99.90;;;;;;5043763;28;20217;-85
2020/12/27 02:52:38;;;;;;;1.80;1.47;;;4.70;99.90;;;;;;5027771;28;20200;-83
2020/12/27 02:55:05;;;;;;;2.17;1.97;;;4.70;99.90;;;;;;5023816;28;20244;-85
2020/12/27 02:57:31;;;;;;;1.33;1.23;;;4.60;99.90;;;;;;5030600;28;20208;-85
2020/12/27 02:59:58;;;;;;;3.33;2.07;;;4.60;99.90;;;;;;5010143;28;20224;-84
2020/12/27 03:02:24;;;;;;;3.83;1.90;;;4.60;99.90;;;;;;5027742;28;20189;-85
2020/12/27 03:04:50;;;;;;;2.93;2.30;;;4.60;99.90;;;;;;5010643;28;20218;-85
2020/12/27 03:07:16;;;;;;;4.40;2.07;;;4.60;99.90;;;;;;5013503;28;20194;-85
2020/12/27 03:09:43;;;;;;;2.27;1.67;;;4.70;99.90;;;;;;5033310;28;20263;-85
2020/12/27 03:12:09;;;;;;;2.80;1.83;;;4.60;99.90;;;;;;5014445;28;20270;-84
2020/12/27 03:14:35;;;;;;;5.67;2.07;;;4.60;99.90;;;;;;5007382;28;20241;-82
2020/12/27 03:17:02;;;;;;;2.20;2.00;;;4.60;99.90;;;;;;5023603;28;20565;-83
2020/12/27 03:19:28;;;;;;;1.77;1.37;;;4.70;99.90;;;;;;5009440;28;20229;-82
2020/12/27 03:21:54;;;;;;;3.50;2.10;;;4.60;99.90;;;;;;5037565;28;20197;-81
2020/12/27 03:24:21;;;;;;;2.17;1.17;;;4.60;99.90;;;;;;5011207;28;20255;-82
2020/12/27 03:26:47;;;;;;;1.90;1.77;;;4.60;99.90;;;;;;5015099;28;20255;-83
2020/12/27 03:29:14;;;;;;;2.03;1.50;;;4.60;99.90;;;;;;5007466;28;20215;-83
2020/12/27 03:31:40;;;;;;;1.53;1.40;;;4.60;99.90;;;;;;5039430;28;20201;-82
2020/12/27 03:34:07;;;;;;;3.57;2.17;;;4.60;99.90;;;;;;5021243;28;20727;-82
2020/12/27 03:36:43;;;;;;;2.10;1.17;;;4.60;99.90;;;;;;5022123;28;20208;-83
2020/12/27 03:39:10;;;;;;;2.07;1.70;;;4.60;99.90;;;;;;5027713;28;20739;-82
2020/12/27 03:41:36;;;;;;;3.23;1.53;;;4.60;99.90;;;;;;5004999;28;20702;-83
2020/12/27 03:44:03;;;;;;;2.23;1.53;;;4.60;99.90;;;;;;5024598;28;20473;-83
2020/12/27 03:46:30;;;;;;;3.33;1.63;;;4.60;99.90;;;;;;5024712;28;20211;-83
2020/12/27 03:48:56;;;;;;;2.70;1.83;;;4.60;99.90;;;;;;5039201;28;20576;-81
2020/12/27 03:51:23;;;;;;;1.77;1.40;;;4.60;99.90;;;;;;5040173;28;20622;-84
2020/12/27 03:53:49;;;;;;;1.63;1.47;;;4.60;99.90;;;;;;5012124;28;20854;-83
2020/12/27 03:56:15;;;;;;;3.57;1.77;;;4.60;99.90;;;;;;5042100;28;20260;-85
2020/12/27 03:58:42;;;;;;;2.47;1.53;;;4.60;99.90;;;;;;5038542;28;20305;-83
2020/12/27 04:01:08;;;;;;;5.77;1.80;;;4.60;99.90;;;;;;5014919;28;20196;-85
2020/12/27 04:03:35;;;;;;;1.80;1.50;;;4.60;99.90;;;;;;5013489;28;20552;-81
2020/12/27 04:06:02;;;;;;;2.97;1.93;;;4.60;99.90;;;;;;5011784;28;20201;-82
2020/12/27 04:08:29;;;;;;;1.97;1.03;;;4.60;99.90;;;;;;5021418;28;20196;-81
2020/12/27 04:10:56;;;;;;;2.03;1.83;;;4.60;99.90;;;;;;5023156;28;20276;-81
2020/12/27 04:13:23;;;;;;;2.37;1.60;;;4.70;99.90;;;;;;5019470;28;20201;-80
2020/12/27 04:15:49;;;;;;;2.27;1.60;;;4.70;99.90;;;;;;5009416;28;20656;-80
2020/12/27 04:18:15;;;;;;;3.87;2.80;;;4.70;99.90;;;;;;5008365;28;20225;-81
2020/12/27 04:20:42;;;;;;;2.37;1.57;;;4.70;99.90;;;;;;5022838;28;20232;-80
2020/12/27 04:23:08;;;;;;;1.70;1.40;;;4.80;99.90;;;;;;5023253;28;20587;-81
2020/12/27 04:25:35;;;;;;;1.47;1.30;;;4.80;99.90;;;;;;5021928;28;20197;-81
2020/12/27 04:28:01;;;;;;;2.20;1.50;;;4.80;99.90;;;;;;5039691;28;20257;-81
2020/12/27 04:30:27;;;;;;;1.47;1.17;;;4.80;99.90;;;;;;5008792;28;20206;-81
2020/12/27 04:32:53;;;;;;;1.70;1.47;;;4.90;99.90;;;;;;5024099;28;20228;-81
2020/12/27 04:35:20;;;;;;;1.67;1.23;;;4.90;99.90;;;;;;5021102;28;20316;-82
2020/12/27 04:37:51;;;;;;;1.63;1.27;;;4.80;99.90;;;;;;5006089;28;20203;-78
2020/12/27 04:40:18;;;;;;;1.50;1.00;;;4.80;99.90;;;;;;5011313;28;20224;-81
2020/12/27 04:42:49;;;;;;;1.37;1.10;;;4.80;99.90;;;;;;5021111;28;20278;-83
2020/12/27 04:45:16;;;;;;;1.67;1.03;;;4.80;99.90;;;;;;5014772;28;20202;-82
2020/12/27 04:47:43;;;;;;;1.10;0.97;;;4.80;99.90;;;;;;5007907;28;20197;-81
2020/12/27 04:50:09;;;;;;;0.90;0.80;;;4.80;99.90;;;;;;5005208;28;20302;-82
2020/12/27 04:52:35;;;;;;;1.27;1.10;;;4.80;99.90;;;;;;5013369;28;20236;-81
2020/12/27 04:55:02;;;;;;;1.07;0.83;;;4.80;99.90;;;;;;5014133;28;20200;-82
2020/12/27 04:57:28;;;;;;;2.83;1.27;;;4.80;99.90;;;;;;5023459;28;20200;-83
2020/12/27 04:59:56;;;;;;;0.83;0.73;;;4.80;99.90;;;;;;5008208;28;20267;-83
2020/12/27 05:02:22;;;;;;;1.23;1.13;;;4.90;99.90;;;;;;5013724;28;20193;-81
2020/12/27 05:04:49;;;;;;;2.80;0.83;;;4.80;99.90;;;;;;5010387;28;20327;-83
2020/12/27 05:07:20;;;;;;;1.30;0.83;;;4.80;99.90;;;;;;5034205;28;20196;-86
2020/12/27 05:09:49;;;;;;;0.93;0.60;;;4.80;99.90;;;;;;5019193;28;20201;-82
2020/12/27 05:12:16;;;;;;;1.63;0.80;;;4.70;99.90;;;;;;5016353;28;20213;-83
2020/12/27 05:14:46;;;;;;;0.50;0.50;;;4.80;99.90;;;;;;5020690;28;20268;-85
2020/12/27 05:17:14;;;;;;;2.10;1.17;;;4.70;99.90;;;;;;5026538;28;20209;-86
2020/12/27 05:19:42;;;;;;;0.53;0.27;;;4.70;99.90;;;;;;5011576;28;20283;-84
2020/12/27 05:22:12;;;;;;;0.70;0.50;;;4.80;99.90;;;;;;5025047;28;20282;-83
2020/12/27 05:24:39;;;;;;;0.57;0.53;;;4.80;99.90;;;;;;5027228;28;20347;-81
2020/12/27 05:27:12;;;;;;;0.37;0.33;;;4.80;99.90;;;;;;5027581;28;20197;-83
2020/12/27 05:29:39;;;;;;;0.60;0.37;;;4.70;99.90;;;;;;5010574;28;20211;-83
2020/12/27 05:32:06;;;;;;;0.50;0.30;;;4.80;99.90;;;;;;5009067;28;21165;-83
2020/12/27 05:34:32;;;;;;;1.00;0.70;;;4.80;99.90;;;;;;5041552;28;20625;-86
2020/12/27 05:37:06;;;;;;;0.40;0.33;;;4.70;99.90;;;;;;5022742;28;20205;-82
2020/12/27 05:39:32;;;;;;;0.60;0.40;;;4.70;99.90;;;;;;5039241;28;20213;-84
2020/12/27 05:42:06;;;;;;;0.87;0.67;;;4.70;99.90;;;;;;5012820;28;20210;-83
2020/12/27 05:44:37;;;;;;;0.80;0.47;;;4.80;99.90;;;;;;5014756;28;20197;-79
2020/12/27 05:47:03;;;;;;;0.77;0.50;;;4.70;99.90;;;;;;5003496;28;20280;-82
2020/12/27 05:49:30;;;;;;;0.20;0.10;;;4.70;99.90;;;;;;5023933;28;20208;-82
2020/12/27 05:51:58;;;;;;;0.40;0.40;;;4.80;99.90;;;;;;5004553;28;20221;-83
2020/12/27 05:54:33;;;;;;;0.50;0.20;;;4.80;99.90;;;;;;5013321;28;20269;-82
2020/12/27 05:57:01;;;;;;;0.40;0.30;;;4.80;99.90;;;;;;5028278;28;20209;-84
2020/12/27 05:59:30;;;;;;;1.07;0.50;;;4.80;99.90;;;;;;5014051;28;20279;-86
2020/12/27 06:01:58;;;;;;;0.50;0.30;;;4.80;99.90;;;;;;5024101;28;20552;-85
2020/12/27 06:04:44;;;;;;;0.20;0.20;;;4.80;99.90;;;;;;5023583;28;20197;-83
2020/12/27 06:07:32;;;;;;;0.60;0.40;;;4.80;99.90;;;;;;5053208;28;20567;-81
2020/12/27 06:09:58;;;;;;;0.20;0.10;;;4.80;99.90;;;;;;5023612;28;20204;-83
2020/12/27 06:12:46;;;;;;;0.50;0.30;;;4.80;99.90;;;;;;5017863;28;20649;-82
2020/12/27 06:15:29;;;;;;;0.40;0.37;;;4.80;99.90;;;;;;5037853;28;20560;-83
2020/12/27 06:18:16;;;;;;;0.20;0.20;;;4.90;99.90;;;;;;5020083;28;20213;-80
2020/12/27 06:20:44;;;;;;;0.97;0.40;;;4.90;99.90;;;;;;5020736;28;20236;-83
2020/12/27 06:23:11;;;;;;;0.40;0.20;;;4.90;99.90;;;;;;5014250;28;20201;-83
2020/12/27 06:25:39;;;;;;;0.30;0.20;;;4.90;99.90;;;;;;5007515;28;20324;-82
2020/12/27 06:28:06;;;;;;;0.27;0.20;;;4.90;99.90;;;;;;5010539;28;20235;-83
2020/12/27 06:30:41;;;;;;;0.50;0.30;;;4.90;99.90;;;;;;5027344;28;20542;-81
2020/12/27 06:33:23;;;;;;;0.30;0.20;;;4.90;99.90;;;;;;5018502;28;20201;-83
2020/12/27 06:35:49;;;;;;;0.27;0.17;;;4.90;99.90;;;;;;5016438;28;20206;-83
2020/12/27 06:38:17;;;;;;;0.63;0.30;;;5.00;99.90;;;;;;5009015;28;20201;-82
2020/12/27 06:40:46;;;;;;;0.70;0.20;;;4.90;99.90;;;;;;5028991;28;20218;-82
2020/12/27 06:43:20;;;;;;;0.20;0.20;;;5.00;99.90;;;;;;5056801;28;20287;-84
2020/12/27 06:45:47;;;;;;;0.30;0.10;;;5.00;99.90;;;;;;5027493;28;20200;-84
2020/12/27 06:48:32;;;;;;;0.37;0.20;;;5.10;99.90;;;;;;5039942;28;20551;-83
2020/12/27 06:50:58;;;;;;;0.30;0.10;;;5.10;99.90;;;;;;5026339;28;20201;-82
2020/12/27 06:53:44;;;;;;;2.73;0.30;;;5.10;99.90;;;;;;5008244;28;20220;-82
2020/12/27 06:56:15;;;;;;;0.33;0.23;;;5.10;99.90;;;;;;5031147;28;20669;-83
2020/12/27 06:59:00;;;;;;;0.40;0.20;;;5.10;99.90;;;;;;5006329;28;20217;-83
2020/12/27 07:01:27;;;;;;;0.20;0.10;;;5.10;99.90;;;;;;5023657;28;20646;-83
2020/12/27 07:04:11;;;;;;;0.33;0.10;;;5.10;99.90;;;;;;5012989;28;20290;-83
2020/12/27 07:06:42;;;;;;;0.30;0.20;;;5.20;99.90;;;;;;5018658;28;20248;-82
2020/12/27 07:09:11;;;;;;;0.90;0.40;;;5.20;99.90;;;;;;5028750;28;20192;-83
2020/12/27 07:11:37;;;;;;;0.67;0.30;;;5.20;99.90;;;;;;5026450;28;20285;-84
2020/12/27 07:14:03;;;;;;;0.50;0.23;;;5.20;99.90;;;;;;5014311;28;20262;-81
2020/12/27 07:16:42;;;;;;;1.63;0.40;;;5.20;99.90;;;;;;5013317;28;20290;-84
2020/12/27 07:19:13;;;;;;;1.43;0.70;;;5.20;99.90;;;;;;5021295;28;20271;-83
2020/12/27 07:21:40;;;;;;;0.20;0.10;;;5.20;99.90;;;;;;5017159;28;20252;-83
2020/12/27 07:24:11;;;;;;;0.43;0.30;;;5.20;99.90;;;;;;5006748;28;20233;-82
2020/12/27 07:26:39;;;;;;;0.20;0.00;;;5.30;99.90;;;;;;5031985;28;20307;-83
2020/12/27 07:29:10;;;;;;;0.60;0.20;;;5.30;99.90;;;;;;5014301;28;20618;-81
2020/12/27 07:31:39;;;;;;;0.23;0.10;;;5.30;99.90;;;;;;5012786;28;20486;-85
2020/12/27 07:34:08;;;;;;;0.40;0.30;;;5.30;99.90;;;;;;5018748;28;20208;-85
2020/12/27 07:36:35;;;;;;;0.40;0.10;;;5.30;99.90;;;;;;5019889;28;20205;-82
2020/12/27 07:39:48;;;;;;;1.17;0.10;;;5.40;99.90;;;;;;5023829;28;20291;-84
2020/12/27 07:42:28;;;;;;;0.20;0.10;;;5.40;99.90;;;;;;5030214;28;20204;-81
2020/12/27 07:44:56;;;;;;;0.20;0.10;;;5.40;99.90;;;;;;5022051;28;20199;-82
2020/12/27 07:47:23;;;;;;;0.30;0.10;;;5.40;99.90;;;;;;5022697;28;20194;-82
2020/12/27 07:50:06;;;;;;;0.50;0.10;;;5.40;99.90;;;;;;5017542;28;20216;-83
2020/12/27 07:52:42;;;;;;;0.20;0.00;;;5.50;99.90;;;;;;5015040;28;20233;-82
2020/12/27 07:55:09;;;;;;;0.20;0.10;;;5.50;99.90;;;;;;5020779;28;20204;-82
2020/12/27 07:57:36;;;;;;;0.30;0.10;;;5.50;99.90;;;;;;5033900;28;20277;-81
2020/12/27 08:00:05;;;;;;;0.30;0.10;;;5.50;99.90;;;;;;5016018;28;20221;-81
2020/12/27 08:02:32;;;;;;;0.20;0.07;;;5.50;99.90;;;;;;5023565;28;20236;-80
2020/12/27 08:05:01;;;;;;;0.20;0.00;;;5.50;99.90;;;;;;5014039;28;21033;-84
2020/12/27 08:07:28;;;;;;;0.43;0.20;;;5.50;99.90;;;;;;5018873;28;20632;-83
2020/12/27 08:09:55;;;;;;;0.20;0.10;;;5.50;99.90;;;;;;5022417;28;20205;-85
2020/12/27 08:12:22;;;;;;;0.20;0.00;;;5.40;99.90;;;;;;5054292;28;20201;-85
2020/12/27 08:14:48;;;;;;;0.20;0.10;;;5.40;99.90;;;;;;5024682;28;20676;-83
2020/12/27 08:17:15;;;;;;;0.83;0.20;;;5.40;99.90;;;;;;5006818;28;21174;-84
2020/12/27 08:19:42;;;;;;;0.20;0.00;;;5.40;99.90;;;;;;5019995;28;20216;-80
2020/12/27 08:22:09;;;;;;;0.87;0.10;;;5.30;99.90;;;;;;5022712;28;20208;-86
2020/12/27 08:24:35;;;;;;;0.20;0.10;;;5.40;99.90;;;;;;5026670;28;20233;-84
2020/12/27 08:27:01;;;;;;;0.20;0.10;;;5.30;99.90;;;;;;5045098;28;20593;-84
2020/12/27 08:29:28;;;;;;;0.20;0.10;;;5.40;99.90;;;;;;5006560;28;20214;-84
2020/12/27 08:32:03;;;;;;;0.73;0.10;;;5.40;99.90;;;;;;5030820;28;20213;-83
2020/12/27 08:34:30;;;;;;;0.53;0.10;;;5.30;99.90;;;;;;5020310;28;20223;-81
2020/12/27 08:36:58;;;;;;;0.20;0.10;;;5.30;99.90;;;;;;5027541;28;20220;-82
2020/12/27 08:39:40;;;;;;;0.30;0.27;;;5.30;99.90;;;;;;5023136;28;20229;-82
2020/12/27 08:42:10;;;;;;;0.20;0.10;;;5.30;99.90;;;;;;5021218;28;20314;-85
2020/12/27 08:45:00;;;;;;;0.20;0.10;;;5.30;99.90;;;;;;5024851;28;20199;-81
2020/12/27 08:47:36;;;;;;;0.40;0.10;;;5.30;99.90;;;;;;5034070;28;20543;-80
2020/12/27 08:50:10;;;;;;;0.40;0.10;;;5.30;99.90;;;;;;5033260;28;20255;-80
2020/12/27 08:52:38;;;;;;;0.20;0.10;;;5.30;99.90;;;;;;5024800;28;20606;-82
2020/12/27 08:55:08;;;;;;;0.67;0.10;;;5.30;99.90;;;;;;5028870;28;20265;-81
2020/12/27 08:57:36;;;;;;;0.60;0.27;;;5.30;99.90;;;;;;5018504;28;20210;-80
2020/12/27 09:00:12;;;;;;;0.20;0.10;;;5.20;99.90;;;;;;5025997;28;20304;-81
2020/12/27 09:02:39;;;;;;;0.30;0.20;;;5.20;99.90;;;;;;5027483;28;20215;-83
2020/12/27 09:05:10;;;;;;;0.50;0.10;;;5.20;99.90;;;;;;5028495;28;20227;-82
2020/12/27 09:07:39;;;;;;;0.20;0.00;;;5.20;99.90;;;;;;5023529;28;20320;-83
2020/12/27 09:10:29;;;;;;;0.20;0.10;;;5.20;99.90;;;;;;5019805;28;20316;-82
2020/12/27 09:13:09;;;;;;;0.47;0.20;;;5.20;99.90;;;;;;5032977;28;20218;-83
2020/12/27 09:15:48;;;;;;;0.20;0.10;;;5.10;99.90;;;;;;5021837;28;20235;-83
2020/12/27 09:18:16;;;;;;;0.20;0.10;;;5.10;99.90;;;;;;5037455;28;20614;-82
2020/12/27 09:20:44;;;;;;;1.60;0.13;;;5.20;99.90;;;;;;5017161;28;20635;-84
2020/12/27 09:23:11;;;;;;;0.20;0.00;;;5.20;99.90;;;;;;5025807;28;20203;-83
2020/12/27 09:25:38;;;;;;;0.60;0.20;;;5.10;99.90;;;;;;5037710;28;20231;-83
2020/12/27 09:28:19;;;;;;;0.30;0.20;;;5.20;99.90;;;;;;5011323;28;20211;-81
2020/12/27 09:30:57;;;;;;;1.60;0.40;;;5.10;99.90;;;;;;5019099;28;20294;-80
2020/12/27 09:33:24;;;;;;;0.20;0.10;;;5.10;99.90;;;;;;5021976;28;20204;-80
2020/12/27 09:35:55;;;;;;;0.30;0.20;;;5.10;99.90;;;;;;5018663;28;20619;-82
2020/12/27 09:38:48;;;;;;;0.37;0.17;;;5.10;99.90;;;;;;5050606;28;20206;-81
2020/12/27 09:41:20;;;;;;;0.53;0.53;;;5.30;99.90;;;;;;5018297;28;20198;-82
2020/12/27 09:44:03;;;;;;;0.20;0.10;;;5.20;99.90;;;;;;5023010;28;20216;-83
2020/12/27 09:46:40;;;;;;;0.23;0.10;;;5.20;99.90;;;;;;5003062;28;20696;-80
2020/12/27 09:49:19;;;;;;;0.97;0.30;;;5.20;99.90;;;;;;5016150;28;20234;-81
2020/12/27 09:51:46;;;;;;;0.30;0.30;;;5.20;99.90;;;;;;5032750;28;20270;-83
2020/12/27 09:54:12;;;;;;;0.67;0.10;;;5.20;99.90;;;;;;5022961;28;20246;-81
2020/12/27 09:56:43;;;;;;;0.23;0.20;;;5.20;99.90;;;;;;5007235;28;20348;-83
2020/12/27 09:59:10;;;;;;;0.30;0.13;;;5.20;99.90;;;;;;5009219;28;20213;-84
2020/12/27 10:01:37;;;;;;;0.33;0.17;;;5.20;99.90;;;;;;5026710;28;20201;-83
2020/12/27 10:04:03;;;;;;;0.30;0.10;;;5.20;99.90;;;;;;5021942;28;20228;-82
2020/12/27 10:06:30;;;;;;;0.43;0.23;;;5.20;99.90;;;;;;5019595;28;20205;-83
2020/12/27 10:08:58;;;;;;;0.40;0.20;;;5.20;99.90;;;;;;5013987;28;20303;-80
2020/12/27 10:11:24;;;;;;;0.20;0.10;;;5.20;99.90;;;;;;5009432;28;20248;-83
2020/12/27 10:13:51;;;;;;;0.20;0.00;;;5.20;99.90;;;;;;5017300;28;20582;-84
2020/12/27 10:16:18;;;;;;;0.20;0.10;;;5.30;99.90;;;;;;5023724;28;20200;-84
2020/12/27 10:18:45;;;;;;;0.30;0.20;;;5.30;99.90;;;;;;5013229;28;20209;-83
2020/12/27 10:21:11;;;;;;;0.33;0.20;;;5.30;99.90;;;;;;5012985;28;20370;-84
2020/12/27 10:23:37;;;;;;;0.30;0.20;;;5.30;99.90;;;;;;5014678;28;20287;-83
2020/12/27 10:26:06;;;;;;;0.27;0.10;;;5.20;99.90;;;;;;5041537;28;20205;-83
2020/12/27 10:28:35;;;;;;;0.20;0.10;;;5.30;99.90;;;;;;5021347;28;20311;-82
2020/12/27 10:31:01;;;;;;;0.30;0.10;;;5.30;99.90;;;;;;5032054;28;20343;-82
2020/12/27 10:33:27;;;;;;;0.20;0.20;;;5.30;99.90;;;;;;5012985;28;20606;-83
2020/12/27 10:35:56;;;;;;;0.20;0.10;;;5.30;99.90;;;;;;5010327;28;20201;-83
2020/12/27 10:38:23;;;;;;;0.20;0.10;;;5.40;99.90;;;;;;5030587;28;20193;-83
2020/12/27 10:40:49;;;;;;;1.53;0.27;;;5.40;99.90;;;;;;5023215;28;20222;-84
2020/12/27 10:43:15;;;;;;;0.20;0.10;;;5.40;99.90;;;;;;5012753;28;20243;-82
2020/12/27 10:45:42;;;;;;;0.30;0.10;;;5.40;99.90;;;;;;5017378;28;20255;-83
2020/12/27 10:48:08;;;;;;;0.20;0.10;;;5.40;99.90;;;;;;5006949;28;20191;-83
2020/12/27 10:50:41;;;;;;;0.20;0.10;;;5.40;99.90;;;;;;5036883;28;20201;-74
2020/12/27 10:53:07;;;;;;;1.27;0.37;;;5.40;99.90;;;;;;5041871;28;20603;-75
2020/12/27 10:55:33;;;;;;;0.20;0.10;;;5.40;99.90;;;;;;5025630;28;20278;-74
2020/12/27 10:58:00;;;;;;;0.20;0.10;;;5.50;99.90;;;;;;5011849;28;20421;-75
2020/12/27 11:00:26;;;;;;;0.20;0.10;;;5.40;99.90;;;;;;5008232;28;20204;-75
2020/12/27 11:02:52;;;;;;;0.67;0.30;;;5.40;99.90;;;;;;5025732;28;20202;-75
2020/12/27 11:05:19;;;;;;;0.20;0.10;;;5.40;99.90;;;;;;5039527;28;20209;-74
2020/12/27 11:07:45;;;;;;;0.20;0.10;;;5.40;99.90;;;;;;5025921;28;20267;-74
2020/12/27 11:10:11;;;;;;;0.20;0.10;;;5.50;99.90;;;;;;5026440;28;20291;-74
2020/12/27 11:12:38;;;;;;;0.40;0.20;;;5.50;99.90;;;;;;5021841;28;20237;-74
2020/12/27 11:15:04;;;;;;;0.20;0.10;;;5.60;99.90;;;;;;5010946;28;20242;-74
2020/12/27 11:17:30;;;;;;;0.30;0.20;;;5.50;99.90;;;;;;5010357;28;20200;-74
2020/12/27 11:19:56;;;;;;;0.73;0.10;;;5.60;99.90;;;;;;5022291;28;20216;-75
2020/12/27 11:22:23;;;;;;;0.30;0.20;;;5.60;99.90;;;;;;5023186;28;20201;-74
2020/12/27 11:24:49;;;;;;;0.20;0.10;;;5.60;99.90;;;;;;5015611;28;20256;-74
2020/12/27 11:27:15;;;;;;;0.40;0.30;;;5.70;99.90;;;;;;5021088;28;20197;-74
2020/12/27 11:29:42;;;;;;;0.87;0.10;;;5.70;99.90;;;;;;5022232;28;20271;-74
2020/12/27 11:32:08;;;;;;;0.20;0.10;;;5.80;99.90;;;;;;5028689;28;20617;-74
2020/12/27 11:34:34;;;;;;;0.60;0.30;;;5.80;99.90;;;;;;5025770;28;20196;-74
2020/12/27 11:37:00;;;;;;;0.30;0.20;;;5.80;99.90;;;;;;5028344;28;20278;-74
2020/12/27 11:39:27;;;;;;;0.20;0.00;;;5.80;99.90;;;;;;5021728;28;20245;-74
2020/12/27 11:41:53;;;;;;;0.20;0.10;;;5.90;99.90;;;;;;5024637;28;20198;-74
2020/12/27 11:44:19;;;;;;;0.50;0.20;;;5.90;99.90;;;;;;5018908;28;20287;-74
2020/12/27 11:46:46;;;;;;;0.20;0.10;;;6.00;99.90;;;;;;5005105;28;20209;-75
2020/12/27 11:49:12;;;;;;;0.20;0.00;;;6.00;99.90;;;;;;5018533;28;20200;-77
2020/12/27 11:51:38;;;;;;;0.20;0.10;;;6.00;99.90;;;;;;5019498;28;20209;-74
2020/12/27 11:54:05;;;;;;;0.87;0.10;;;6.10;99.90;;;;;;5007581;28;20670;-74
2020/12/27 11:56:31;;;;;;;0.20;0.10;;;6.10;99.90;;;;;;5020382;28;20260;-74
2020/12/27 11:58:58;;;;;;;0.50;0.10;;;6.10;99.90;;;;;;5032076;28;20256;-74
2020/12/27 12:01:24;;;;;;;0.20;0.13;;;6.10;99.90;;;;;;5018845;28;20296;-74
2020/12/27 12:03:50;;;;;;;0.20;0.10;;;6.20;99.90;;;;;;5022505;28;20592;-74
2020/12/27 12:06:23;;;;;;;0.27;0.10;;;6.20;99.90;;;;;;5006464;28;20198;-74
2020/12/27 12:08:50;;;;;;;0.20;0.00;;;6.20;99.90;;;;;;5017511;28;20233;-75
2020/12/27 12:11:16;;;;;;;0.20;0.10;;;6.30;99.90;;;;;;5011622;28;20203;-73
2020/12/27 12:13:43;;;;;;;0.37;0.20;;;6.30;99.90;;;;;;5012257;28;20206;-73
2020/12/27 12:16:18;;;;;;;0.30;0.20;;;6.30;99.90;;;;;;5005393;28;20583;-73
2020/12/27 12:18:44;;;;;;;0.30;0.20;;;6.30;99.90;;;;;;5049248;28;20449;-75
2020/12/27 12:21:11;;;;;;;0.20;0.10;;;6.40;99.90;;;;;;5014302;28;20267;-75
2020/12/27 12:23:38;;;;;;;0.20;0.10;;;6.30;99.90;;;;;;5010838;28;20266;-74
2020/12/27 12:26:04;;;;;;;0.30;0.10;;;6.30;99.90;;;;;;5013403;28;20217;-74
2020/12/27 12:28:30;;;;;;;0.20;0.10;;;6.30;99.90;;;;;;5005640;28;20587;-75
2020/12/27 12:30:57;;;;;;;0.40;0.27;;;6.30;99.90;;;;;;5018262;28;20217;-74
2020/12/27 12:33:23;;;;;;;0.50;0.10;;;6.30;99.90;;;;;;5021012;28;20198;-74
2020/12/27 12:35:50;;;;;;;0.20;0.10;;;6.40;99.90;;;;;;5006052;28;20235;-73
2020/12/27 12:38:16;;;;;;;0.20;0.10;;;6.30;99.90;;;;;;5033107;28;20238;-73
2020/12/27 12:40:43;;;;;;;0.27;0.17;;;6.40;99.90;;;;;;5013916;28;20576;-73
2020/12/27 12:43:09;;;;;;;0.20;0.20;;;6.40;99.90;;;;;;5005890;28;20205;-73
2020/12/27 12:45:36;;;;;;;0.20;0.20;;;6.40;99.90;;;;;;5022882;28;20288;-73
2020/12/27 12:48:02;;;;;;;0.40;0.10;;;6.40;99.90;;;;;;5015032;28;20700;-73
2020/12/27 12:50:29;;;;;;;0.20;0.10;;;6.30;99.90;;;;;;5029643;28;20212;-73
2020/12/27 12:52:55;;;;;;;0.50;0.10;;;6.40;99.90;;;;;;5015986;28;20258;-73
2020/12/27 12:55:21;;;;;;;0.30;0.10;;;6.40;99.90;;;;;;5031984;28;20202;-73
2020/12/27 12:57:48;;;;;;;0.20;0.10;;;6.40;99.90;;;;;;5015866;28;21486;-74
2020/12/27 13:00:14;;;;;;;0.20;0.10;;;6.40;99.90;;;;;;5030476;28;20213;-74
2020/12/27 13:02:41;;;;;;;0.20;0.03;;;6.40;99.90;;;;;;5030914;28;20205;-75
2020/12/27 13:05:07;;;;;;;0.30;0.10;;;6.40;99.90;;;;;;5020742;28;20614;-74
2020/12/27 13:07:36;;;;;;;0.30;0.10;;;6.40;99.90;;;;;;5049385;28;20209;-74